createdAt,value
2018-10-03T00:01:57.316Z,3.60
2018-10-03T00:04:25.694Z,3.57
2018-10-03T00:06:54.072Z,4.93
2018-10-03T00:09:22.441Z,3.57
2018-10-03T00:11:50.889Z,4.23
2018-10-03T00:14:19.276Z,3.97
2018-10-03T00:16:47.637Z,3.97
2018-10-03T00:19:16.001Z,5.00
2018-10-03T00:21:44.353Z,4.53
2018-10-03T00:24:12.709Z,4.97
2018-10-03T00:26:42.157Z,3.67
2018-10-03T00:29:10.534Z,4.73
2018-10-03T00:31:38.888Z,6.10
2018-10-03T00:34:07.252Z,3.43
2018-10-03T00:36:35.645Z,3.50
2018-10-03T00:39:07.009Z,3.50
2018-10-03T00:41:35.356Z,4.90
2018-10-03T00:44:03.694Z,2.60
2018-10-03T00:46:32.076Z,3.53
2018-10-03T00:49:00.425Z,3.10
2018-10-03T00:51:28.763Z,3.43
2018-10-03T00:53:57.109Z,3.00
2018-10-03T00:56:25.467Z,3.57
2018-10-03T00:58:53.826Z,3.90
2018-10-03T01:01:22.176Z,3.10
2018-10-03T01:03:50.553Z,4.40
2018-10-03T01:06:18.892Z,5.07
2018-10-03T01:08:47.605Z,3.77
2018-10-03T01:11:15.916Z,4.83
2018-10-03T01:13:44.256Z,3.73
2018-10-03T01:16:12.605Z,3.60
2018-10-03T01:18:40.933Z,3.40
2018-10-03T01:21:09.317Z,4.00
2018-10-03T01:23:37.668Z,2.87
2018-10-03T01:26:06.075Z,4.60
2018-10-03T01:28:34.400Z,3.60
2018-10-03T01:31:02.744Z,3.70
2018-10-03T01:33:31.092Z,4.47
2018-10-03T01:35:59.475Z,3.80
2018-10-03T01:38:27.854Z,3.50
2018-10-03T01:40:56.205Z,4.87
2018-10-03T01:43:24.561Z,3.90
2018-10-03T01:45:53.021Z,4.67
2018-10-03T01:48:21.381Z,4.03
2018-10-03T01:50:50.811Z,5.40
2018-10-03T01:53:19.152Z,4.07
2018-10-03T01:55:47.515Z,4.70
2018-10-03T01:58:15.890Z,3.70
2018-10-03T02:00:44.244Z,4.07
2018-10-03T02:03:12.721Z,3.87
2018-10-03T02:05:41.081Z,4.43
2018-10-03T02:08:09.421Z,4.07
2018-10-03T02:10:37.787Z,4.53
2018-10-03T02:13:06.260Z,3.17
2018-10-03T02:15:34.605Z,3.00
2018-10-03T02:18:04.025Z,2.87
2018-10-03T02:20:32.434Z,2.80
2018-10-03T02:23:00.796Z,3.23
2018-10-03T02:25:29.158Z,2.73
2018-10-03T02:27:57.540Z,2.97
2018-10-03T02:30:25.942Z,1.83
2018-10-03T02:32:56.332Z,2.63
2018-10-03T02:35:24.721Z,2.47
2018-10-03T02:37:53.057Z,2.60
2018-10-03T02:40:21.433Z,3.00
2018-10-03T02:42:49.797Z,2.03
2018-10-03T02:45:20.754Z,3.20
2018-10-03T02:47:51.855Z,3.30
2018-10-03T02:50:20.522Z,2.53
2018-10-03T02:52:48.825Z,3.40
2018-10-03T02:55:17.206Z,2.83
2018-10-03T02:57:45.806Z,3.53
2018-10-03T03:00:14.177Z,3.33
2018-10-03T03:02:42.573Z,4.70
2018-10-03T03:05:11.022Z,4.47
2018-10-03T03:07:39.401Z,4.40
2018-10-03T03:10:07.841Z,4.00
2018-10-03T03:12:36.189Z,4.10
2018-10-03T03:15:04.609Z,2.80
2018-10-03T03:17:33.000Z,4.37
2018-10-03T03:20:01.352Z,4.47
2018-10-03T03:22:31.758Z,3.70
2018-10-03T03:25:00.116Z,2.90
2018-10-03T03:27:28.460Z,3.67
2018-10-03T03:29:57.929Z,2.93
2018-10-03T03:32:26.307Z,2.60
2018-10-03T03:34:54.693Z,2.63
2018-10-03T03:37:23.236Z,3.97
2018-10-03T03:39:51.597Z,3.20
2018-10-03T03:42:20.019Z,3.27
2018-10-03T03:44:48.412Z,3.10
2018-10-03T03:47:16.797Z,2.83
2018-10-03T03:49:45.170Z,2.93
2018-10-03T03:52:14.570Z,3.83
2018-10-03T03:54:42.931Z,3.90
2018-10-03T03:57:11.287Z,3.50
2018-10-03T03:59:39.673Z,3.33
2018-10-03T04:02:08.075Z,3.47
2018-10-03T04:04:36.505Z,2.17
2018-10-03T04:07:04.877Z,2.87
2018-10-03T04:09:34.264Z,2.77
2018-10-03T04:12:02.604Z,2.23
2018-10-03T04:14:33.063Z,4.27
2018-10-03T04:17:01.421Z,2.60
2018-10-03T04:19:29.820Z,2.50
2018-10-03T04:21:58.178Z,3.40
2018-10-03T04:24:26.564Z,3.30
2018-10-03T04:26:54.896Z,2.47
2018-10-03T04:29:23.301Z,2.20
2018-10-03T04:31:51.668Z,2.93
2018-10-03T04:34:20.043Z,2.17
2018-10-03T04:36:48.425Z,2.53
2018-10-03T04:39:16.789Z,3.53
2018-10-03T04:41:45.128Z,3.33
2018-10-03T04:44:13.488Z,3.27
2018-10-03T04:46:41.836Z,2.57
2018-10-03T04:49:10.211Z,2.70
2018-10-03T04:51:38.577Z,2.60
2018-10-03T04:54:07.045Z,2.40
2018-10-03T04:56:35.745Z,2.23
2018-10-03T04:59:04.384Z,1.90
2018-10-03T05:01:32.725Z,2.63
2018-10-03T05:04:01.174Z,2.67
2018-10-03T05:06:29.599Z,2.70
2018-10-03T05:08:57.957Z,2.87
2018-10-03T05:11:26.403Z,2.17
2018-10-03T05:13:54.713Z,2.70
2018-10-03T05:16:23.061Z,2.70
2018-10-03T05:18:51.431Z,2.30
2018-10-03T05:21:19.782Z,2.10
2018-10-03T05:23:48.136Z,2.23
2018-10-03T05:26:16.484Z,4.03
2018-10-03T05:28:44.836Z,2.67
2018-10-03T05:31:13.180Z,2.50
2018-10-03T05:33:41.574Z,2.70
2018-10-03T05:36:09.980Z,2.60
2018-10-03T05:38:38.309Z,1.83
2018-10-03T05:41:07.732Z,2.97
2018-10-03T05:43:36.079Z,3.70
2018-10-03T05:46:04.441Z,2.10
2018-10-03T05:49:36.380Z,1.90
2018-10-03T05:52:04.769Z,1.77
2018-10-03T05:54:33.194Z,3.20
2018-10-03T05:57:02.656Z,2.30
2018-10-03T05:59:31.019Z,1.50
2018-10-03T06:01:59.481Z,2.70
2018-10-03T06:04:27.982Z,2.00
2018-10-03T06:06:56.355Z,2.67
2018-10-03T06:09:24.729Z,2.10
2018-10-03T06:11:53.105Z,2.67
2018-10-03T06:14:22.480Z,2.10
2018-10-03T06:16:50.833Z,2.77
2018-10-03T06:19:19.310Z,2.23
2018-10-03T06:21:47.720Z,1.77
2018-10-03T06:24:16.062Z,2.20
2018-10-03T06:26:44.436Z,2.97
2018-10-03T06:29:12.812Z,2.10
2018-10-03T06:31:41.164Z,2.60
2018-10-03T06:34:09.532Z,2.20
2018-10-03T06:36:37.913Z,2.20
2018-10-03T06:39:08.213Z,2.33
2018-10-03T06:41:37.625Z,2.20
2018-10-03T06:44:05.993Z,3.10
2018-10-03T06:46:35.405Z,3.07
2018-10-03T06:49:03.873Z,2.30
2018-10-03T06:51:32.261Z,3.73
2018-10-03T06:54:00.684Z,2.00
2018-10-03T06:56:29.338Z,1.90
2018-10-03T06:58:57.899Z,1.73
2018-10-03T07:01:26.268Z,2.20
2018-10-03T07:03:54.680Z,2.40
2018-10-03T07:06:23.073Z,2.07
2018-10-03T07:08:51.485Z,2.70
2018-10-03T07:11:19.882Z,3.43
2018-10-03T07:13:48.241Z,2.47
2018-10-03T07:16:16.892Z,3.50
2018-10-03T07:18:45.257Z,2.70
2018-10-03T07:21:13.626Z,2.13
2018-10-03T07:23:41.989Z,3.30
2018-10-03T07:26:11.030Z,2.77
2018-10-03T07:28:39.375Z,2.00
2018-10-03T07:31:07.909Z,2.53
2018-10-03T07:33:36.329Z,2.70
2018-10-03T07:36:04.977Z,2.20
2018-10-03T07:38:33.317Z,2.43
2018-10-03T07:41:01.696Z,2.27
2018-10-03T07:43:32.085Z,3.70
2018-10-03T07:46:00.481Z,5.10
2018-10-03T07:48:28.849Z,4.50
2018-10-03T07:50:57.216Z,4.47
2018-10-03T07:53:26.052Z,4.40
2018-10-03T07:55:54.394Z,3.43
2018-10-03T07:58:22.775Z,4.20
2018-10-03T08:00:51.124Z,3.17
2018-10-03T08:03:20.596Z,2.73
2018-10-03T08:05:49.928Z,3.33
2018-10-03T08:08:18.292Z,2.07
2018-10-03T08:10:46.640Z,2.30
2018-10-03T08:13:16.028Z,2.13
2018-10-03T08:15:44.424Z,3.93
2018-10-03T08:18:12.787Z,2.33
2018-10-03T08:20:41.140Z,2.27
2018-10-03T08:23:09.548Z,2.00
2018-10-03T08:25:37.940Z,2.70
2018-10-03T08:28:06.573Z,2.80
2018-10-03T08:30:34.924Z,2.23
2018-10-03T08:33:03.336Z,2.00
2018-10-03T08:35:31.657Z,2.13
2018-10-03T08:38:00.068Z,3.90
2018-10-03T08:40:28.420Z,3.20
2018-10-03T08:42:57.104Z,2.20
2018-10-03T08:45:25.491Z,3.23
2018-10-03T08:47:53.859Z,3.03
2018-10-03T08:50:22.225Z,3.63
2018-10-03T08:52:50.625Z,2.70
2018-10-03T08:55:19.161Z,2.70
2018-10-03T08:57:47.557Z,2.43
2018-10-03T09:00:15.913Z,2.27
2018-10-03T09:02:44.308Z,2.30
2018-10-03T09:05:13.361Z,1.57
2018-10-03T09:07:41.800Z,3.20
2018-10-03T09:10:10.355Z,3.50
2018-10-03T09:12:38.903Z,3.17
2018-10-03T09:15:08.685Z,2.30
2018-10-03T09:17:38.372Z,2.73
2018-10-03T09:20:06.915Z,2.07
2018-10-03T09:22:37.409Z,2.93
2018-10-03T09:25:05.836Z,2.70
2018-10-03T09:27:34.296Z,3.50
2018-10-03T09:30:02.677Z,2.63
2018-10-03T09:32:32.117Z,3.27
2018-10-03T09:35:00.497Z,2.63
2018-10-03T09:37:28.865Z,3.23
2018-10-03T09:39:57.315Z,1.90
2018-10-03T09:42:25.791Z,1.90
2018-10-03T09:44:54.189Z,2.10
2018-10-03T09:47:22.611Z,2.60
2018-10-03T09:49:50.973Z,3.00
2018-10-03T09:52:19.328Z,3.43
2018-10-03T09:54:48.787Z,2.60
2018-10-03T09:57:18.219Z,2.67
2018-10-03T09:59:46.636Z,3.00
2018-10-03T10:02:15.037Z,3.10
2018-10-03T10:04:43.401Z,2.07
2018-10-03T10:07:12.092Z,2.50
2018-10-03T10:09:40.445Z,1.90
2018-10-03T10:12:08.809Z,3.43
2018-10-03T10:14:37.283Z,2.23
2018-10-03T10:17:05.724Z,1.80
2018-10-03T10:19:34.060Z,3.93
2018-10-03T10:22:02.541Z,2.60
2018-10-03T10:24:30.908Z,2.43
2018-10-03T10:26:59.301Z,2.20
2018-10-03T10:32:18.351Z,2.50
2018-10-03T10:34:46.690Z,2.00
2018-10-03T10:37:14.990Z,4.37
2018-10-03T10:39:43.375Z,2.37
2018-10-03T10:42:11.778Z,2.63
2018-10-03T10:44:40.106Z,2.43
2018-10-03T10:47:08.561Z,2.00
2018-10-03T10:49:37.047Z,2.03
2018-10-03T10:52:05.404Z,2.13
2018-10-03T10:54:33.812Z,2.83
2018-10-03T10:57:02.176Z,2.67
2018-10-03T10:59:31.494Z,2.33
2018-10-03T11:01:59.868Z,2.10
2018-10-03T11:04:28.221Z,1.70
2018-10-03T11:06:56.594Z,2.90
2018-10-03T11:09:24.948Z,2.23
2018-10-03T11:11:53.287Z,2.70
2018-10-03T11:14:21.641Z,2.70
2018-10-03T11:16:50.052Z,2.77
2018-10-03T11:19:18.431Z,2.70
2018-10-03T11:21:46.781Z,3.33
2018-10-03T11:24:15.334Z,2.13
2018-10-03T11:26:43.538Z,2.57
2018-10-03T11:29:11.888Z,2.37
2018-10-03T11:31:40.237Z,2.37
2018-10-03T11:34:08.566Z,2.70
2018-10-03T11:36:36.944Z,1.90
2018-10-03T11:39:07.513Z,2.90
2018-10-03T11:41:36.280Z,4.20
2018-10-03T11:44:04.630Z,3.67
2018-10-03T11:46:32.970Z,2.50
2018-10-03T11:49:01.924Z,2.40
2018-10-03T11:51:30.269Z,4.60
2018-10-03T11:53:58.605Z,1.90
2018-10-03T11:56:27.544Z,8.37
2018-10-03T11:58:55.880Z,3.97
2018-10-03T12:01:24.244Z,2.20
2018-10-03T12:03:52.641Z,2.10
2018-10-03T12:06:21.089Z,1.90
2018-10-03T12:08:49.380Z,2.10
2018-10-03T12:11:17.825Z,2.27
2018-10-03T12:13:46.251Z,1.93
2018-10-03T12:16:14.540Z,2.00
2018-10-03T12:18:42.965Z,1.00
2018-10-03T12:21:11.321Z,1.87
2018-10-03T12:23:39.772Z,1.40
2018-10-03T12:26:08.269Z,1.60
2018-10-03T12:28:37.553Z,1.50
2018-10-03T12:31:05.936Z,1.43
2018-10-03T12:33:34.488Z,1.60
2018-10-03T12:36:02.983Z,0.90
2018-10-03T12:38:32.421Z,1.50
2018-10-03T12:41:00.755Z,1.63
2018-10-03T12:43:29.112Z,1.53
2018-10-03T12:45:57.435Z,1.53
2018-10-03T12:48:25.787Z,1.50
2018-10-03T12:50:54.132Z,1.10
2018-10-03T12:53:22.673Z,1.43
2018-10-03T12:55:51.025Z,0.87
2018-10-03T12:58:19.372Z,1.90
2018-10-03T13:00:48.731Z,1.77
2018-10-03T13:03:18.147Z,1.53
2018-10-03T13:05:46.501Z,1.47
2018-10-03T13:08:14.881Z,3.23
2018-10-03T13:13:34.836Z,2.13
2018-10-03T13:16:03.197Z,2.10
2018-10-03T13:18:31.760Z,1.50
2018-10-03T13:21:00.149Z,1.83
2018-10-03T13:23:28.629Z,0.90
2018-10-03T13:25:56.984Z,1.60
2018-10-03T13:28:25.569Z,1.63
2018-10-03T13:30:54.049Z,1.50
2018-10-03T13:33:22.424Z,1.50
2018-10-03T13:35:51.040Z,1.83
2018-10-03T13:38:19.467Z,1.47
2018-10-03T13:40:47.948Z,1.83
2018-10-03T13:43:16.288Z,1.50
2018-10-03T13:45:44.728Z,1.00
2018-10-03T13:48:13.153Z,1.43
2018-10-03T13:50:41.570Z,1.00
2018-10-03T13:53:09.973Z,1.40
2018-10-03T13:55:38.357Z,1.07
2018-10-03T14:05:16.580Z,0.83
2018-10-03T14:07:46.924Z,1.27
2018-10-03T14:10:15.276Z,1.10
2018-10-03T14:12:43.627Z,1.20
2018-10-03T14:15:12.028Z,0.90
2018-10-03T14:17:40.392Z,0.90
2018-10-03T14:20:08.768Z,1.30
2018-10-03T14:22:37.125Z,2.00
2018-10-03T14:25:05.914Z,0.80
2018-10-03T14:27:35.445Z,1.00
2018-10-03T14:30:03.837Z,1.47
2018-10-03T14:32:32.201Z,1.20
2018-10-03T14:35:02.615Z,0.83
2018-10-03T14:37:30.941Z,0.90
2018-10-03T14:39:59.329Z,0.80
2018-10-03T14:42:27.681Z,1.20
2018-10-03T14:44:56.061Z,1.77
2018-10-03T14:47:25.022Z,1.47
2018-10-03T14:49:53.370Z,1.67
2018-10-03T14:52:21.844Z,0.90
2018-10-03T14:54:50.134Z,0.77
2018-10-03T14:57:18.661Z,1.60
2018-10-03T14:59:47.036Z,1.30
2018-10-03T15:02:15.397Z,1.40
2018-10-03T15:04:43.788Z,1.47
2018-10-03T15:07:12.141Z,1.50
2018-10-03T15:09:40.513Z,1.73
2018-10-03T15:12:09.224Z,1.30
2018-10-03T15:14:37.587Z,1.67
2018-10-03T15:17:06.153Z,1.40
2018-10-03T15:19:34.554Z,1.63
2018-10-03T15:22:02.920Z,1.33
2018-10-03T15:24:31.289Z,1.73
2018-10-03T15:26:59.740Z,1.40
2018-10-03T15:29:28.284Z,1.40
2018-10-03T15:31:56.633Z,1.80
2018-10-03T15:34:25.245Z,1.60
2018-10-03T15:36:53.773Z,1.50
2018-10-03T15:39:22.121Z,2.00
2018-10-03T15:41:50.568Z,1.70
2018-10-03T15:44:18.949Z,1.70
2018-10-03T15:46:47.451Z,2.77
2018-10-03T15:49:16.788Z,1.50
2018-10-03T15:51:45.912Z,1.30
2018-10-03T15:54:14.280Z,1.40
2018-10-03T15:56:42.977Z,1.40
2018-10-03T15:59:11.376Z,1.80
2018-10-03T16:01:41.052Z,1.53
2018-10-03T16:04:09.824Z,1.60
2018-10-03T16:06:38.157Z,1.60
2018-10-03T16:09:07.562Z,1.90
2018-10-03T16:11:35.953Z,1.67
2018-10-03T16:14:04.317Z,1.47
2018-10-03T16:16:32.696Z,1.50
2018-10-03T16:19:01.057Z,1.73
2018-10-03T16:21:29.409Z,1.77
2018-10-03T16:23:58.141Z,1.70
2018-10-03T16:26:26.582Z,1.83
2018-10-03T16:28:55.860Z,2.40
2018-10-03T16:31:24.242Z,3.00
2018-10-03T16:33:52.580Z,3.27
2018-10-03T16:36:20.976Z,1.93
2018-10-03T16:38:49.389Z,2.33
2018-10-03T16:41:18.799Z,1.90
2018-10-03T16:43:47.124Z,1.67
2018-10-03T16:46:15.592Z,2.43
2018-10-03T16:48:44.255Z,1.77
2018-10-03T16:51:13.633Z,2.67
2018-10-03T16:53:42.023Z,2.30
2018-10-03T16:56:11.150Z,4.00
2018-10-03T16:58:39.492Z,3.77
2018-10-03T17:01:09.168Z,6.20
2018-10-03T17:03:37.535Z,5.83
2018-10-03T17:06:05.855Z,7.60
2018-10-03T17:08:34.192Z,6.30
2018-10-03T17:11:02.524Z,6.63
2018-10-03T17:13:32.923Z,5.10
2018-10-03T17:16:01.564Z,4.87
2018-10-03T17:18:29.912Z,3.40
2018-10-03T17:20:59.293Z,2.70
2018-10-03T17:23:28.961Z,2.50
2018-10-03T17:25:57.313Z,2.40
2018-10-03T17:28:25.716Z,2.03
2018-10-03T17:30:54.141Z,1.60
2018-10-03T17:33:22.533Z,1.30
2018-10-03T17:35:52.001Z,2.10
2018-10-03T17:38:21.571Z,1.50
2018-10-03T17:40:49.959Z,1.30
2018-10-03T17:43:18.324Z,1.30
2018-10-03T17:45:46.694Z,2.00
2018-10-03T17:48:15.054Z,2.10
2018-10-03T17:50:43.444Z,1.97
2018-10-03T17:53:11.792Z,2.23
2018-10-03T17:55:40.171Z,1.67
2018-10-03T17:58:08.549Z,1.57
2018-10-03T18:00:36.909Z,1.93
2018-10-03T18:03:06.105Z,2.47
2018-10-03T18:05:34.437Z,1.33
2018-10-03T18:08:02.781Z,1.83
2018-10-03T18:10:31.136Z,2.07
2018-10-03T18:12:59.468Z,2.33
2018-10-03T18:15:27.798Z,1.97
2018-10-03T18:17:56.149Z,1.97
2018-10-03T18:20:24.492Z,2.00
2018-10-03T18:22:53.419Z,1.90
2018-10-03T18:25:21.769Z,2.07
2018-10-03T18:27:51.248Z,2.27
2018-10-03T18:30:21.577Z,2.43
2018-10-03T18:32:49.940Z,1.90
2018-10-03T18:35:18.352Z,1.90
2018-10-03T18:37:46.907Z,2.37
2018-10-03T18:40:15.235Z,2.83
2018-10-03T18:42:43.612Z,1.80
2018-10-03T18:45:12.985Z,1.77
2018-10-03T18:47:41.344Z,1.87
2018-10-03T18:50:09.717Z,2.20
2018-10-03T18:52:39.140Z,2.40
2018-10-03T18:55:07.511Z,3.00
2018-10-03T18:57:35.900Z,2.00
2018-10-03T19:00:04.275Z,2.20
2018-10-03T19:02:32.642Z,2.37
2018-10-03T19:05:00.964Z,2.40
2018-10-03T19:07:29.357Z,2.70
2018-10-03T19:09:58.826Z,2.93
2018-10-03T19:12:27.389Z,1.90
2018-10-03T19:14:56.818Z,3.08
2018-10-03T19:17:25.173Z,2.50
2018-10-03T19:19:53.798Z,2.80
2018-10-03T19:22:22.140Z,2.40
2018-10-03T19:24:50.501Z,2.63
2018-10-03T19:27:18.885Z,1.70
2018-10-03T19:29:47.249Z,3.10
2018-10-03T19:32:16.314Z,1.97
2018-10-03T19:34:44.676Z,1.97
2018-10-03T19:37:13.032Z,3.03
2018-10-03T19:39:41.445Z,2.10
2018-10-03T19:42:09.865Z,3.37
2018-10-03T19:44:38.188Z,3.33
2018-10-03T19:47:06.645Z,2.77
2018-10-03T19:49:35.013Z,2.53
2018-10-03T19:52:03.356Z,2.07
2018-10-03T19:54:32.530Z,2.23
2018-10-03T19:57:05.788Z,1.63
2018-10-03T19:59:36.347Z,2.60
2018-10-03T20:02:04.706Z,2.17
2018-10-03T20:04:33.084Z,2.90
2018-10-03T20:07:02.512Z,2.60
2018-10-03T20:09:31.880Z,2.30
2018-10-03T20:12:00.523Z,2.60
2018-10-03T20:14:28.952Z,2.00
2018-10-03T20:16:57.485Z,2.40
2018-10-03T20:19:25.829Z,2.30
2018-10-03T20:21:54.220Z,1.20
2018-10-03T20:24:22.569Z,3.30
2018-10-03T20:26:51.114Z,2.70
2018-10-03T20:29:19.488Z,2.63
2018-10-03T20:31:48.937Z,2.27
2018-10-03T20:34:17.355Z,2.87
2018-10-03T20:36:45.711Z,2.23
2018-10-03T20:39:15.073Z,2.50
2018-10-03T20:41:45.198Z,1.73
2018-10-03T20:44:13.638Z,2.97
2018-10-03T20:46:42.014Z,3.03
2018-10-03T20:49:10.431Z,2.60
2018-10-03T20:51:38.813Z,2.40
2018-10-03T20:54:07.250Z,2.90
2018-10-03T20:56:35.586Z,2.17
2018-10-03T20:59:04.053Z,3.23
2018-10-03T21:01:32.396Z,2.20
2018-10-03T21:04:00.749Z,2.07
2018-10-03T21:06:29.912Z,2.50
2018-10-03T21:08:58.327Z,1.97
2018-10-03T21:11:26.739Z,2.10
2018-10-03T21:13:55.165Z,1.93
2018-10-03T21:16:23.529Z,2.60
2018-10-03T21:18:51.874Z,2.20
2018-10-03T21:21:20.273Z,3.20
2018-10-03T21:23:48.633Z,2.80
2018-10-03T21:26:16.984Z,2.10
2018-10-03T21:28:45.376Z,2.60
2018-10-03T21:31:13.773Z,2.63
2018-10-03T21:33:42.213Z,3.17
2018-10-03T21:38:56.952Z,2.03
2018-10-03T21:41:25.325Z,2.40
2018-10-03T21:43:53.668Z,2.57
2018-10-03T21:46:22.081Z,2.63
2018-10-03T21:48:50.446Z,2.27
2018-10-03T21:51:18.866Z,1.97
2018-10-03T21:53:47.275Z,2.90
2018-10-03T21:56:15.649Z,2.67
2018-10-03T21:58:44.001Z,2.17
2018-10-03T22:01:12.389Z,2.80
2018-10-03T22:03:40.880Z,2.80
2018-10-03T22:06:10.220Z,2.20
2018-10-03T22:08:38.632Z,2.00
2018-10-03T22:11:09.054Z,2.10
2018-10-03T22:13:37.422Z,1.77
2018-10-03T22:16:05.812Z,2.10
2018-10-03T22:18:37.445Z,1.90
2018-10-03T22:21:05.871Z,1.70
2018-10-03T22:23:34.492Z,1.73
2018-10-03T22:26:02.844Z,2.10
2018-10-03T22:28:31.186Z,1.43
2018-10-03T22:30:59.565Z,1.80
2018-10-03T22:33:27.909Z,2.97
2018-10-03T22:35:56.319Z,2.70
2018-10-03T22:38:24.689Z,1.50
2018-10-03T22:40:53.232Z,1.70
2018-10-03T22:43:21.589Z,2.63
2018-10-03T22:45:50.166Z,1.83
2018-10-03T22:48:18.521Z,1.60
2018-10-03T22:50:46.865Z,2.33
2018-10-03T22:53:16.361Z,2.80
2018-10-03T22:55:44.716Z,2.47
2018-10-03T22:58:13.078Z,1.67
2018-10-03T23:00:41.436Z,2.23
2018-10-03T23:03:10.073Z,2.63
2018-10-03T23:05:38.436Z,1.50
2018-10-03T23:08:06.813Z,2.57
2018-10-03T23:10:35.166Z,3.33
2018-10-03T23:13:03.520Z,3.77
2018-10-03T23:15:31.869Z,1.90
2018-10-03T23:18:00.176Z,2.60
2018-10-03T23:20:28.524Z,2.00
2018-10-03T23:22:56.840Z,1.40
2018-10-03T23:25:25.352Z,1.53
2018-10-03T23:27:53.702Z,1.80
2018-10-03T23:30:22.052Z,1.90
2018-10-03T23:32:50.441Z,2.10
2018-10-03T23:35:18.783Z,2.00
2018-10-03T23:37:47.108Z,1.70
2018-10-03T23:40:16.148Z,2.17
2018-10-03T23:42:44.556Z,1.97
2018-10-03T23:45:12.892Z,2.27
2018-10-03T23:47:41.241Z,1.30
2018-10-03T23:50:09.596Z,1.93
2018-10-03T23:52:37.936Z,1.63
2018-10-03T23:55:06.412Z,1.87
2018-10-03T23:57:34.834Z,1.87
